Time;durP1;ratioP1;P1;durP2;ratioP2;P2;SDS_P1;SDS_P2;PMS_P1;PMS_P2;Temp;Humidity;BMP_temperature;BMP_pressure;BME280_temperature;BME280_humidity;BME280_pressure;Samples;Min_cycle;Max_cycle;Signal;HPM_P1;HPM_P2
2019/04/03 19:28:23;;;;;;;4.05;2.3;;;;;;;13.54;34.45508;93382.3;;;;
2019/04/03 19:29:24;;;;;;;4.05;2.3;;;;;;;13.54;34.45508;93382.3;;;;
2019/04/03 19:30:25;;;;;;;4.05;2.3;;;;;;;13.54;34.45508;93382.3;;;;
2019/04/03 19:31:26;;;;;;;2.6;2.4;;;;;;;13.46;34.62305;93382.03;;;;
2019/04/03 19:32:28;;;;;;;2.6;2.4;;;;;;;13.46;34.62305;93382.03;;;;
2019/04/03 19:33:29;;;;;;;3.05;2.5;;;;;;;13.39;34.71582;93379.32;;;;
2019/04/03 19:34:30;;;;;;;3.05;2.5;;;;;;;13.39;34.71582;93379.32;;;;
2019/04/03 19:35:31;;;;;;;3.05;2.5;;;;;;;13.39;34.71582;93379.32;;;;
2019/04/03 19:36:32;;;;;;;2.5;2.3;;;;;;;13.33;34.9082;93379.15;;;;
2019/04/03 19:36:36;;;;;;;2.5;2.3;;;;;;;13.33;34.9082;93379.15;;;;
2019/04/03 19:37:33;;;;;;;2.5;2.3;;;;;;;13.33;34.9082;93379.15;;;;
2019/04/03 19:37:36;;;;;;;2.5;2.3;;;;;;;13.33;34.9082;93379.15;;;;
2019/04/03 19:38:35;;;;;;;2.5;2.3;;;;;;;13.33;34.9082;93379.15;;;;
2019/04/03 19:38:36;;;;;;;2.5;2.3;;;;;;;13.33;34.9082;93379.15;;;;
2019/04/03 19:39:36;;;;;;;2.4;2.2;;;;;;;13.28;34.96875;93383.86;;;;
2019/04/03 19:39:37;;;;;;;2.4;2.2;;;;;;;13.28;34.96875;93383.86;;;;
2019/04/03 19:40:37;;;;;;;2.4;2.2;;;;;;;13.28;34.96875;93383.86;;;;
2019/04/03 19:40:37;;;;;;;2.4;2.2;;;;;;;13.28;34.96875;93383.86;;;;
2019/04/03 19:41:37;;;;;;;2.5;2.3;;;;;;;13.21;35.19238;93388.73;;;;
2019/04/03 19:41:38;;;;;;;2.5;2.3;;;;;;;13.21;35.19238;93388.73;;;;
2019/04/03 19:42:38;;;;;;;2.5;2.3;;;;;;;13.21;35.19238;93388.73;;;;
2019/04/03 19:42:39;;;;;;;2.5;2.3;;;;;;;13.21;35.19238;93388.73;;;;
2019/04/03 19:43:38;;;;;;;2.5;2.3;;;;;;;13.21;35.19238;93388.73;;;;
2019/04/03 19:43:41;;;;;;;2.5;2.3;;;;;;;13.21;35.19238;93388.73;;;;
2019/04/03 19:44:38;;;;;;;2.65;2.45;;;;;;;13.13;35.30566;93378.97;;;;
2019/04/03 19:44:42;;;;;;;2.65;2.45;;;;;;;13.13;35.30566;93378.97;;;;
2019/04/03 19:45:43;;;;;;;2.65;2.45;;;;;;;13.13;35.30566;93378.97;;;;
2019/04/03 19:47:01;;;;;;;3.3;2.35;;;;;;;13.05;35.47363;93376.54;;;;
2019/04/03 19:48:01;;;;;;;3.3;2.35;;;;;;;13.05;35.47363;93376.54;;;;
2019/04/03 19:49:02;;;;;;;3.3;2.35;;;;;;;13.05;35.47363;93376.54;;;;
2019/04/03 19:50:02;;;;;;;3.15;2.45;;;;;;;12.98;35.66309;93391.94;;;;
2019/04/03 19:51:04;;;;;;;3.15;2.45;;;;;;;12.98;35.66309;93391.94;;;;
2019/04/03 19:52:04;;;;;;;2.45;2.25;;;;;;;12.89;35.90527;93446.14;;;;
2019/04/03 19:53:04;;;;;;;2.45;2.25;;;;;;;12.89;35.90527;93446.14;;;;
2019/04/03 19:54:05;;;;;;;2.45;2.25;;;;;;;12.89;35.90527;93446.14;;;;
2019/04/03 19:55:05;;;;;;;5.6;3.2;;;;;;;12.83;36.32617;93440.94;;;;
2019/04/03 19:56:05;;;;;;;5.6;3.2;;;;;;;12.83;36.32617;93440.94;;;;
2019/04/03 19:57:06;;;;;;;5.6;3.2;;;;;;;12.83;36.32617;93440.94;;;;
2019/04/03 19:58:06;;;;;;;6.349999;3.6;;;;;;;12.79;36.97461;93445.73;;;;
2019/04/03 20:02:55;;;;;;;6.300001;3.95;;;;;;;12.72;38.49121;93491.33;;;;
2019/04/03 20:03:56;;;;;;;6.300001;3.95;;;;;;;12.72;38.49121;93491.33;;;;
2019/04/03 20:04:58;;;;;;;6.300001;3.95;;;;;;;12.72;38.49121;93491.33;;;;
2019/04/03 20:05:59;;;;;;;8.200001;5.95;;;;;;;12.69;39.19434;93501.81;;;;
2019/04/03 20:07:00;;;;;;;8.200001;5.95;;;;;;;12.69;39.19434;93501.81;;;;
2019/04/03 20:13:51;;;;;;;10.75;8.450001;;;;;;;12.44;43.23047;93525.7;;;;
2019/04/03 20:14:52;;;;;;;10.75;8.450001;;;;;;;12.44;43.23047;93525.7;;;;
2019/04/03 20:15:54;;;;;;;9.6;8.6;;;;;;;12.27;44.2002;93536.6;;;;
2019/04/03 20:16:55;;;;;;;9.6;8.6;;;;;;;12.27;44.2002;93536.6;;;;
2019/04/03 20:17:56;;;;;;;9.6;8.6;;;;;;;12.27;44.2002;93536.6;;;;
2019/04/03 20:18:57;;;;;;;9.6;8.6;;;;;;;12.27;44.2002;93536.6;;;;
2019/04/03 20:21:45;;;;;;;10.2;9.199999;;;;;;;11.87;46.52051;93544.23;;;;
2019/04/03 20:22:46;;;;;;;10.2;9.199999;;;;;;;11.87;46.52051;93544.23;;;;
2019/04/03 20:23:47;;;;;;;10.2;9.199999;;;;;;;11.87;46.52051;93544.23;;;;
2019/04/03 20:24:48;;;;;;;10.35;9.550001;;;;;;;11.64;47.10059;93556.72;;;;
2019/04/03 20:25:49;;;;;;;10.35;9.550001;;;;;;;11.64;47.10059;93556.72;;;;
2019/04/03 20:26:51;;;;;;;11.15;10.25;;;;;;;11.37;47.74219;93563.42;;;;
2019/04/03 20:29:37;;;;;;;11.7;10.65;;;;;;;11.11;48.6416;93582.26;;;;
2019/04/03 20:30:38;;;;;;;11.7;10.65;;;;;;;11.11;48.6416;93582.26;;;;
2019/04/03 20:32:38;;;;;;;12.5;11.45;;;;;;;10.87;49.39258;93588.08;;;;
2019/04/03 20:33:39;;;;;;;12.5;11.45;;;;;;;10.87;49.39258;93588.08;;;;
2019/04/03 20:34:40;;;;;;;11.8;10.85;;;;;;;10.64;50.16309;93591.04;;;;
2019/04/03 20:35:42;;;;;;;11.8;10.85;;;;;;;10.64;50.16309;93591.04;;;;
2019/04/03 20:36:43;;;;;;;11.8;10.85;;;;;;;10.64;50.16309;93591.04;;;;
2019/04/03 20:37:44;;;;;;;12.3;11.15;;;;;;;10.42;50.81641;93598.68;;;;
2019/04/03 20:38:45;;;;;;;12.3;11.15;;;;;;;10.42;50.81641;93598.68;;;;
2019/04/03 20:39:47;;;;;;;12.3;11.2;;;;;;;10.22;51.39551;93608.22;;;;
2019/04/03 20:40:48;;;;;;;12.3;11.2;;;;;;;10.22;51.39551;93608.22;;;;
2019/04/03 20:41:49;;;;;;;12.3;11.2;;;;;;;10.22;51.39551;93608.22;;;;
2019/04/03 20:42:50;;;;;;;12.65;11.65;;;;;;;10.05;51.94727;93615.23;;;;
2019/04/03 20:43:51;;;;;;;12.65;11.65;;;;;;;10.05;51.94727;93615.23;;;;
2019/04/03 20:44:52;;;;;;;12.65;11.65;;;;;;;10.05;51.94727;93615.23;;;;
2019/04/03 20:45:54;;;;;;;13.05;11.95;;;;;;;9.91;52.65039;93621.31;;;;
2019/04/03 20:46:55;;;;;;;13.05;11.95;;;;;;;9.91;52.65039;93621.31;;;;
2019/04/03 20:47:56;;;;;;;13.35;12.25;;;;;;;9.79;53.22656;93631.16;;;;
2019/04/03 20:48:57;;;;;;;13.35;12.25;;;;;;;9.79;53.22656;93631.16;;;;
2019/04/03 20:49:58;;;;;;;13.35;12.25;;;;;;;9.79;53.22656;93631.16;;;;
2019/04/03 20:50:59;;;;;;;13.55;12.3;;;;;;;9.69;53.63477;93627.96;;;;
2019/04/03 20:52:01;;;;;;;13.55;12.3;;;;;;;9.69;53.63477;93627.96;;;;
2019/04/03 20:53:03;;;;;;;13.6;12.4;;;;;;;9.61;53.88184;93626.33;;;;
2019/04/03 20:54:04;;;;;;;13.6;12.4;;;;;;;9.61;53.88184;93626.33;;;;
2019/04/03 20:55:05;;;;;;;13.6;12.4;;;;;;;9.61;53.88184;93626.33;;;;
2019/04/03 20:56:06;;;;;;;13;11.9;;;;;;;9.54;54.17383;93630.65;;;;
2019/04/03 20:57:08;;;;;;;13;11.9;;;;;;;9.54;54.17383;93630.65;;;;
2019/04/03 20:58:09;;;;;;;13.3;12.15;;;;;;;9.48;54.52051;93632.65;;;;
2019/04/03 20:59:10;;;;;;;13.3;12.15;;;;;;;9.48;54.52051;93632.65;;;;
2019/04/03 21:00:11;;;;;;;13.3;12.15;;;;;;;9.48;54.52051;93632.65;;;;
2019/04/03 21:01:13;;;;;;;12.75;11.7;;;;;;;9.41;54.8457;93639.67;;;;
2019/04/03 21:02:14;;;;;;;12.75;11.7;;;;;;;9.41;54.8457;93639.67;;;;
2019/04/03 21:03:15;;;;;;;12.75;11.7;;;;;;;9.41;54.8457;93639.67;;;;
2019/04/03 21:04:16;;;;;;;13;11.9;;;;;;;9.35;55.0957;93632.65;;;;
2019/04/03 21:05:18;;;;;;;13;11.9;;;;;;;9.35;55.0957;93632.65;;;;
2019/04/03 21:06:19;;;;;;;12.65;11.55;;;;;;;9.29;55.34473;93645.04;;;;
2019/04/03 21:07:20;;;;;;;12.65;11.55;;;;;;;9.29;55.34473;93645.04;;;;
2019/04/03 21:08:21;;;;;;;12.65;11.55;;;;;;;9.29;55.34473;93645.04;;;;
2019/04/03 21:09:22;;;;;;;11.45;10.45;;;;;;;9.24;55.62793;93646.8;;;;
2019/04/03 21:10:24;;;;;;;11.45;10.45;;;;;;;9.24;55.62793;93646.8;;;;
2019/04/03 21:11:25;;;;;;;11.2;10.3;;;;;;;9.19;56.0498;93652.19;;;;
2019/04/03 21:12:26;;;;;;;11.2;10.3;;;;;;;9.19;56.0498;93652.19;;;;
2019/04/03 21:13:27;;;;;;;11.2;10.3;;;;;;;9.19;56.0498;93652.19;;;;
2019/04/03 21:14:28;;;;;;;10.45;9.550001;;;;;;;9.16;56.22852;93647.85;;;;
2019/04/03 21:15:30;;;;;;;10.45;9.550001;;;;;;;9.16;56.22852;93647.85;;;;
2019/04/03 21:16:31;;;;;;;10.45;9.550001;;;;;;;9.16;56.22852;93647.85;;;;
2019/04/03 21:17:32;;;;;;;9.950001;9.1;;;;;;;9.1;56.41406;93655.13;;;;
2019/04/03 21:18:33;;;;;;;9.950001;9.1;;;;;;;9.1;56.41406;93655.13;;;;
2019/04/03 21:19:34;;;;;;;10.2;9.299998;;;;;;;9.06;56.79395;93653.22;;;;
2019/04/03 21:20:35;;;;;;;10.2;9.299998;;;;;;;9.06;56.79395;93653.22;;;;
2019/04/03 21:21:37;;;;;;;10.2;9.299998;;;;;;;9.06;56.79395;93653.22;;;;
2019/04/03 21:22:38;;;;;;;10.15;9.249999;;;;;;;9;57.12012;93655.5;;;;
2019/04/03 21:23:39;;;;;;;10.15;9.249999;;;;;;;9;57.12012;93655.5;;;;
2019/04/03 21:24:40;;;;;;;10.1;9.200001;;;;;;;8.95;57.34863;93674.33;;;;
2019/04/03 21:25:41;;;;;;;10.1;9.200001;;;;;;;8.95;57.34863;93674.33;;;;
2019/04/03 21:26:43;;;;;;;10.1;9.200001;;;;;;;8.95;57.34863;93674.33;;;;
2019/04/03 21:27:44;;;;;;;10.35;9.35;;;;;;;8.9;57.62988;93673.92;;;;
2019/04/03 21:28:45;;;;;;;10.35;9.35;;;;;;;8.9;57.62988;93673.92;;;;
2019/04/03 21:29:46;;;;;;;10.5;9.599999;;;;;;;8.84;57.88086;93681.16;;;;
2019/04/03 21:30:47;;;;;;;10.5;9.599999;;;;;;;8.84;57.88086;93681.16;;;;
2019/04/03 21:31:48;;;;;;;10.5;9.599999;;;;;;;8.84;57.88086;93681.16;;;;
2019/04/03 21:32:49;;;;;;;10.85;9.850001;;;;;;;8.79;58.2041;93673.21;;;;
2019/04/03 21:33:51;;;;;;;10.85;9.850001;;;;;;;8.79;58.2041;93673.21;;;;
2019/04/03 21:34:52;;;;;;;10.85;9.850001;;;;;;;8.79;58.2041;93673.21;;;;
2019/04/03 21:35:53;;;;;;;10.4;9.4;;;;;;;8.73;58.46484;93672.38;;;;
2019/04/03 21:36:54;;;;;;;10.4;9.4;;;;;;;8.73;58.46484;93672.38;;;;
2019/04/03 21:37:55;;;;;;;10.05;9.25;;;;;;;8.68;58.66211;93668.33;;;;
2019/04/03 21:38:56;;;;;;;10.05;9.25;;;;;;;8.68;58.66211;93668.33;;;;
2019/04/03 21:39:58;;;;;;;10.05;9.25;;;;;;;8.68;58.66211;93668.33;;;;
2019/04/03 21:40:59;;;;;;;9.85;8.950001;;;;;;;8.65;58.87109;93674.62;;;;
2019/04/03 21:42:00;;;;;;;9.85;8.950001;;;;;;;8.65;58.87109;93674.62;;;;
2019/04/03 21:43:01;;;;;;;9.449998;8.65;;;;;;;8.63;58.97461;93679.6;;;;
2019/04/03 21:44:02;;;;;;;9.449998;8.65;;;;;;;8.63;58.97461;93679.6;;;;
2019/04/03 21:45:04;;;;;;;9.449998;8.65;;;;;;;8.63;58.97461;93679.6;;;;
2019/04/03 21:46:05;;;;;;;9.700001;8.799999;;;;;;;8.6;59.08984;93676.48;;;;
2019/04/03 21:47:06;;;;;;;9.700001;8.799999;;;;;;;8.6;59.08984;93676.48;;;;
2019/04/03 21:48:07;;;;;;;9.700001;8.799999;;;;;;;8.6;59.08984;93676.48;;;;
2019/04/03 21:49:08;;;;;;;9.400001;8.6;;;;;;;8.56;59.2666;93673.5;;;;
2019/04/03 21:50:09;;;;;;;9.400001;8.6;;;;;;;8.56;59.2666;93673.5;;;;
2019/04/03 21:51:11;;;;;;;9.199999;8.350001;;;;;;;8.55;59.31836;93671.08;;;;
2019/04/03 21:52:12;;;;;;;9.199999;8.350001;;;;;;;8.55;59.31836;93671.08;;;;
2019/04/03 21:53:13;;;;;;;9.199999;8.350001;;;;;;;8.55;59.31836;93671.08;;;;
2019/04/03 21:54:14;;;;;;;9.35;8.550001;;;;;;;8.54;59.46582;93677.55;;;;
2019/04/03 21:55:15;;;;;;;9.35;8.550001;;;;;;;8.54;59.46582;93677.55;;;;
2019/04/03 21:56:16;;;;;;;9.799998;8.899999;;;;;;;8.51;59.68652;93680.21;;;;
2019/04/03 21:57:18;;;;;;;9.799998;8.899999;;;;;;;8.51;59.68652;93680.21;;;;
2019/04/03 21:58:19;;;;;;;9.799998;8.899999;;;;;;;8.51;59.68652;93680.21;;;;
2019/04/03 21:59:20;;;;;;;9.849999;8.799999;;;;;;;8.48;59.81055;93695.65;;;;
2019/04/03 22:00:28;;;;;;;9.849999;8.799999;;;;;;;8.48;59.81055;93695.65;;;;
2019/04/03 22:02:10;;;;;;;9.450002;8.550001;;;;;;;8.45;59.96777;93696.08;;;;
2019/04/03 22:03:11;;;;;;;9.450002;8.550001;;;;;;;8.45;59.96777;93696.08;;;;
2019/04/03 22:04:13;;;;;;;9.450002;8.550001;;;;;;;8.45;59.96777;93696.08;;;;
2019/04/03 22:05:14;;;;;;;9.450002;8.550001;;;;;;;8.45;59.96777;93696.08;;;;
2019/04/03 22:06:15;;;;;;;9.450002;8.550001;;;;;;;8.45;59.96777;93696.08;;;;
2019/04/03 22:07:16;;;;;;;9.85;8.950002;;;;;;;8.37;60.19238;93675.45;;;;
2019/04/03 22:08:17;;;;;;;9.85;8.950002;;;;;;;8.37;60.19238;93675.45;;;;
2019/04/03 22:09:19;;;;;;;9.900001;9.049999;;;;;;;8.33;60.32617;93682.42;;;;
2019/04/03 22:10:20;;;;;;;9.900001;9.049999;;;;;;;8.33;60.32617;93682.42;;;;
2019/04/03 22:11:21;;;;;;;9.900001;9.049999;;;;;;;8.33;60.32617;93682.42;;;;
2019/04/03 22:12:22;;;;;;;9.550001;8.65;;;;;;;8.31;60.46094;93658.59;;;;
2019/04/03 22:13:23;;;;;;;9.550001;8.65;;;;;;;8.31;60.46094;93658.59;;;;
2019/04/03 22:14:24;;;;;;;9.550001;8.65;;;;;;;8.31;60.46094;93658.59;;;;
2019/04/03 22:15:26;;;;;;;9.550001;8.65;;;;;;;8.31;60.46094;93658.59;;;;
2019/04/03 22:16:27;;;;;;;9.550001;8.65;;;;;;;8.31;60.46094;93658.59;;;;
2019/04/03 22:17:28;;;;;;;9.299998;8.5;;;;;;;8.34;60.34863;93673.3;;;;
2019/04/03 22:18:29;;;;;;;9.299998;8.5;;;;;;;8.34;60.34863;93673.3;;;;
2019/04/03 22:19:30;;;;;;;9.299998;8.5;;;;;;;8.34;60.34863;93673.3;;;;
2019/04/03 22:20:31;;;;;;;9.75;8.949999;;;;;;;8.35;60.35938;93668.7;;;;
2019/04/03 22:21:32;;;;;;;9.75;8.949999;;;;;;;8.35;60.35938;93668.7;;;;
2019/04/03 22:22:34;;;;;;;9.75;8.949999;;;;;;;8.35;60.35938;93668.7;;;;
2019/04/03 22:23:35;;;;;;;9.75;8.949999;;;;;;;8.35;60.35938;93668.7;;;;
2019/04/03 22:24:36;;;;;;;9.75;8.949999;;;;;;;8.35;60.35938;93668.7;;;;
2019/04/03 22:25:37;;;;;;;9.799999;8.900001;;;;;;;8.27;60.59473;93660.22;;;;
2019/04/03 22:26:39;;;;;;;9.799999;8.900001;;;;;;;8.27;60.59473;93660.22;;;;
2019/04/03 22:27:40;;;;;;;9.799999;8.900001;;;;;;;8.27;60.59473;93660.22;;;;
2019/04/03 22:28:41;;;;;;;10.3;9.350001;;;;;;;8.25;60.75098;93673.63;;;;
2019/04/03 22:29:42;;;;;;;10.3;9.350001;;;;;;;8.25;60.75098;93673.63;;;;
2019/04/03 22:30:43;;;;;;;8.800001;8.1;;;;;;;8.21;60.88574;93667;;;;
2019/04/03 22:31:44;;;;;;;8.800001;8.1;;;;;;;8.21;60.88574;93667;;;;
2019/04/03 22:32:45;;;;;;;8.800001;8.1;;;;;;;8.21;60.88574;93667;;;;
2019/04/03 22:33:47;;;;;;;8.800001;8.1;;;;;;;8.21;60.88574;93667;;;;
2019/04/03 22:34:48;;;;;;;8.800001;8.1;;;;;;;8.21;60.88574;93667;;;;
2019/04/03 22:35:49;;;;;;;8.800001;8.1;;;;;;;8.21;60.88574;93667;;;;
2019/04/03 22:36:50;;;;;;;7.649999;7.050001;;;;;;;8.2;60.80957;93671.7;;;;
2019/04/03 22:37:51;;;;;;;7.649999;7.050001;;;;;;;8.2;60.80957;93671.7;;;;
2019/04/03 22:38:52;;;;;;;7.85;7.149999;;;;;;;8.18;60.68848;93673.44;;;;
2019/04/03 22:39:54;;;;;;;7.85;7.149999;;;;;;;8.18;60.68848;93673.44;;;;
2019/04/03 22:40:55;;;;;;;7.85;7.149999;;;;;;;8.18;60.68848;93673.44;;;;
2019/04/03 22:41:56;;;;;;;7.85;7.149999;;;;;;;8.18;60.68848;93673.44;;;;
2019/04/03 22:42:57;;;;;;;7.85;7.149999;;;;;;;8.18;60.68848;93673.44;;;;
2019/04/03 22:43:58;;;;;;;7.85;7.149999;;;;;;;8.18;60.68848;93673.44;;;;
2019/04/03 22:45:00;;;;;;;7.85;7.149999;;;;;;;8.18;60.68848;93673.44;;;;
2019/04/03 22:46:01;;;;;;;7.85;7.149999;;;;;;;8.18;60.68848;93673.44;;;;
2019/04/03 22:47:02;;;;;;;7.85;7.149999;;;;;;;8.18;60.68848;93673.44;;;;
2019/04/03 22:48:03;;;;;;;6.7;6.2;;;;;;;8.02;60.5166;93686.1;;;;
2019/04/03 22:49:04;;;;;;;6.7;6.2;;;;;;;8.02;60.5166;93686.1;;;;
2019/04/03 22:50:06;;;;;;;6.7;6.2;;;;;;;8.02;60.5166;93686.1;;;;
2019/04/03 22:51:07;;;;;;;6.7;6.2;;;;;;;8.02;60.5166;93686.1;;;;
2019/04/03 22:52:08;;;;;;;6.7;6.2;;;;;;;8.02;60.5166;93686.1;;;;
2019/04/03 22:53:09;;;;;;;7.45;6.75;;;;;;;7.84;60.73633;93680.2;;;;
2019/04/03 22:54:10;;;;;;;7.45;6.75;;;;;;;7.84;60.73633;93680.2;;;;
2019/04/03 22:55:11;;;;;;;6.85;6.250001;;;;;;;7.76;60.87598;93679.21;;;;
2019/04/03 22:56:13;;;;;;;6.85;6.250001;;;;;;;7.76;60.87598;93679.21;;;;
2019/04/03 22:57:14;;;;;;;6.85;6.250001;;;;;;;7.76;60.87598;93679.21;;;;
2019/04/03 22:58:15;;;;;;;7.75;7.099999;;;;;;;7.69;61.08887;93670.67;;;;
2019/04/03 22:59:16;;;;;;;7.75;7.099999;;;;;;;7.69;61.08887;93670.67;;;;
2019/04/03 23:00:17;;;;;;;7.349999;6.75;;;;;;;7.61;61.24902;93660.28;;;;
2019/04/03 23:01:18;;;;;;;7.349999;6.75;;;;;;;7.61;61.24902;93660.28;;;;
2019/04/03 23:02:20;;;;;;;7.349999;6.75;;;;;;;7.61;61.24902;93660.28;;;;
2019/04/03 23:03:21;;;;;;;7.7;7;;;;;;;7.52;61.4082;93656.05;;;;
2019/04/03 23:04:22;;;;;;;7.7;7;;;;;;;7.52;61.4082;93656.05;;;;
2019/04/03 23:05:23;;;;;;;7.7;7;;;;;;;7.52;61.4082;93656.05;;;;
2019/04/03 23:06:24;;;;;;;7.55;6.950001;;;;;;;7.45;61.63086;93657.34;;;;
2019/04/03 23:07:25;;;;;;;7.55;6.950001;;;;;;;7.45;61.63086;93657.34;;;;
2019/04/03 23:08:26;;;;;;;7.95;7.25;;;;;;;7.36;61.78906;93650.27;;;;
2019/04/03 23:09:28;;;;;;;7.95;7.25;;;;;;;7.36;61.78906;93650.27;;;;
2019/04/03 23:10:29;;;;;;;7.95;7.25;;;;;;;7.36;61.78906;93650.27;;;;
2019/04/03 23:11:30;;;;;;;8.550001;7.849999;;;;;;;7.26;61.93359;93645.76;;;;
2019/04/03 23:12:32;;;;;;;8.550001;7.849999;;;;;;;7.26;61.93359;93645.76;;;;
2019/04/03 23:13:33;;;;;;;8.200001;7.4;;;;;;;7.14;62.17383;93647.81;;;;
2019/04/03 23:14:34;;;;;;;8.200001;7.4;;;;;;;7.14;62.17383;93647.81;;;;
2019/04/03 23:15:35;;;;;;;8.200001;7.4;;;;;;;7.14;62.17383;93647.81;;;;
2019/04/03 23:16:36;;;;;;;8.35;7.649999;;;;;;;7.03;62.43457;93638.86;;;;
2019/04/03 23:17:38;;;;;;;8.35;7.649999;;;;;;;7.03;62.43457;93638.86;;;;
2019/04/03 23:18:39;;;;;;;8.35;7.649999;;;;;;;7.03;62.43457;93638.86;;;;
2019/04/03 23:19:40;;;;;;;8.6;7.8;;;;;;;6.92;62.8877;93636.21;;;;
2019/04/03 23:20:41;;;;;;;8.6;7.8;;;;;;;6.92;62.8877;93636.21;;;;
2019/04/03 23:21:42;;;;;;;8.850001;8.05;;;;;;;6.85;63.12207;93634.79;;;;
2019/04/03 23:22:43;;;;;;;8.850001;8.05;;;;;;;6.85;63.12207;93634.79;;;;
2019/04/03 23:23:45;;;;;;;8.850001;8.05;;;;;;;6.85;63.12207;93634.79;;;;
2019/04/03 23:24:46;;;;;;;8.850001;8.05;;;;;;;6.85;63.12207;93634.79;;;;
2019/04/03 23:25:47;;;;;;;8.850001;8.05;;;;;;;6.85;63.12207;93634.79;;;;
2019/04/03 23:26:48;;;;;;;8.850001;8.05;;;;;;;6.85;63.12207;93634.79;;;;
2019/04/03 23:27:49;;;;;;;8.450001;7.65;;;;;;;6.76;63.37402;93628.67;;;;
2019/04/03 23:28:50;;;;;;;8.450001;7.65;;;;;;;6.76;63.37402;93628.67;;;;
2019/04/03 23:29:51;;;;;;;8.450002;7.649999;;;;;;;6.7;63.43066;93626.47;;;;
2019/04/03 23:30:53;;;;;;;8.450002;7.649999;;;;;;;6.7;63.43066;93626.47;;;;
2019/04/03 23:31:54;;;;;;;8.450002;7.649999;;;;;;;6.7;63.43066;93626.47;;;;
2019/04/03 23:32:55;;;;;;;8.450002;7.649999;;;;;;;6.7;63.43066;93626.47;;;;
2019/04/03 23:33:56;;;;;;;8.450002;7.649999;;;;;;;6.7;63.43066;93626.47;;;;
2019/04/03 23:34:57;;;;;;;8.450002;7.649999;;;;;;;6.7;63.43066;93626.47;;;;
2019/04/03 23:35:58;;;;;;;8;7.3;;;;;;;6.53;63.79785;93603.88;;;;
2019/04/03 23:37:00;;;;;;;8;7.3;;;;;;;6.53;63.79785;93603.88;;;;
2019/04/03 23:38:01;;;;;;;8;7.3;;;;;;;6.53;63.79785;93603.88;;;;
2019/04/03 23:39:03;;;;;;;8;7.3;;;;;;;6.53;63.79785;93603.88;;;;
2019/04/03 23:40:06;;;;;;;8;7.3;;;;;;;6.53;63.79785;93603.88;;;;
2019/04/03 23:41:07;;;;;;;8;7.3;;;;;;;6.53;63.79785;93603.88;;;;
2019/04/03 23:42:08;;;;;;;8;7.3;;;;;;;6.53;63.79785;93603.88;;;;
2019/04/03 23:43:09;;;;;;;8;7.3;;;;;;;6.53;63.79785;93603.88;;;;
2019/04/03 23:44:11;;;;;;;8.25;7.5;;;;;;;6.23;64.39258;93608.9;;;;
2019/04/03 23:45:12;;;;;;;8.25;7.5;;;;;;;6.23;64.39258;93608.9;;;;
2019/04/03 23:46:13;;;;;;;8.15;7.45;;;;;;;6.15;64.60254;93609.77;;;;
2019/04/03 23:47:14;;;;;;;8.15;7.45;;;;;;;6.15;64.60254;93609.77;;;;
2019/04/03 23:48:15;;;;;;;8.15;7.45;;;;;;;6.15;64.60254;93609.77;;;;
2019/04/03 23:49:16;;;;;;;8;7.05;;;;;;;6.04;64.95898;93608.42;;;;
2019/04/03 23:50:18;;;;;;;8;7.05;;;;;;;6.04;64.95898;93608.42;;;;
2019/04/03 23:51:19;;;;;;;8.150002;7.45;;;;;;;5.92;65.32227;93599.67;;;;
2019/04/03 23:52:20;;;;;;;8.150002;7.45;;;;;;;5.92;65.32227;93599.67;;;;
2019/04/03 23:53:21;;;;;;;8.150002;7.45;;;;;;;5.92;65.32227;93599.67;;;;
2019/04/03 23:54:22;;;;;;;8.050001;7.349999;;;;;;;5.83;65.59473;93598.08;;;;
2019/04/03 23:55:23;;;;;;;8.050001;7.349999;;;;;;;5.83;65.59473;93598.08;;;;
2019/04/03 23:56:25;;;;;;;8.050001;7.349999;;;;;;;5.83;65.59473;93598.08;;;;
2019/04/03 23:57:26;;;;;;;8.550001;7.799999;;;;;;;5.74;65.93066;93597.81;;;;
2019/04/03 23:58:27;;;;;;;8.550001;7.799999;;;;;;;5.74;65.93066;93597.81;;;;
2019/04/03 23:59:28;;;;;;;8.549999;7.749999;;;;;;;5.66;66.36426;93601.31;;;;
